sensor_id;sensor_type;location;lat;lon;timestamp;P1;durP1;ratioP1;P2;durP2;ratioP2
8104;SDS011;4095;48.942;9.104;2022-12-31T00:00:30;0.70;;;0.50;;
8104;SDS011;4095;48.942;9.104;2022-12-31T00:02:56;0.87;;;0.87;;
8104;SDS011;4095;48.942;9.104;2022-12-31T00:05:22;0.77;;;0.77;;
8104;SDS011;4095;48.942;9.104;2022-12-31T00:07:48;0.63;;;0.63;;
8104;SDS011;4095;48.942;9.104;2022-12-31T00:10:13;2.00;;;0.40;;
8104;SDS011;4095;48.942;9.104;2022-12-31T00:12:39;0.73;;;0.63;;
8104;SDS011;4095;48.942;9.104;2022-12-31T00:15:05;1.07;;;0.60;;
8104;SDS011;4095;48.942;9.104;2022-12-31T00:17:31;0.70;;;0.70;;
8104;SDS011;4095;48.942;9.104;2022-12-31T00:19:56;1.10;;;0.77;;
8104;SDS011;4095;48.942;9.104;2022-12-31T00:22:22;1.00;;;0.83;;
8104;SDS011;4095;48.942;9.104;2022-12-31T00:24:47;0.60;;;0.60;;
8104;SDS011;4095;48.942;9.104;2022-12-31T00:27:13;1.53;;;0.73;;
8104;SDS011;4095;48.942;9.104;2022-12-31T00:29:38;1.13;;;0.80;;
8104;SDS011;4095;48.942;9.104;2022-12-31T00:32:04;0.90;;;0.70;;
8104;SDS011;4095;48.942;9.104;2022-12-31T00:34:30;0.80;;;0.60;;
8104;SDS011;4095;48.942;9.104;2022-12-31T00:36:55;0.70;;;0.70;;
8104;SDS011;4095;48.942;9.104;2022-12-31T00:39:21;1.60;;;0.73;;
8104;SDS011;4095;48.942;9.104;2022-12-31T00:41:46;1.30;;;0.70;;
8104;SDS011;4095;48.942;9.104;2022-12-31T00:44:12;0.60;;;0.60;;
8104;SDS011;4095;48.942;9.104;2022-12-31T00:46:38;0.43;;;0.43;;
8104;SDS011;4095;48.942;9.104;2022-12-31T00:49:04;1.30;;;0.60;;
8104;SDS011;4095;48.942;9.104;2022-12-31T00:51:30;0.73;;;0.73;;
8104;SDS011;4095;48.942;9.104;2022-12-31T00:53:56;1.03;;;0.60;;
8104;SDS011;4095;48.942;9.104;2022-12-31T00:56:23;0.97;;;0.63;;
8104;SDS011;4095;48.942;9.104;2022-12-31T00:58:50;1.77;;;0.60;;
8104;SDS011;4095;48.942;9.104;2022-12-31T01:01:17;0.70;;;0.70;;
8104;SDS011;4095;48.942;9.104;2022-12-31T01:03:49;0.50;;;0.50;;
8104;SDS011;4095;48.942;9.104;2022-12-31T01:06:15;1.33;;;0.67;;
8104;SDS011;4095;48.942;9.104;2022-12-31T01:08:42;2.20;;;0.60;;
8104;SDS011;4095;48.942;9.104;2022-12-31T01:11:09;0.63;;;0.50;;
8104;SDS011;4095;48.942;9.104;2022-12-31T01:13:55;1.00;;;0.63;;
8104;SDS011;4095;48.942;9.104;2022-12-31T01:16:22;0.60;;;0.60;;
8104;SDS011;4095;48.942;9.104;2022-12-31T01:18:50;1.70;;;0.50;;
8104;SDS011;4095;48.942;9.104;2022-12-31T01:21:16;0.30;;;0.30;;
8104;SDS011;4095;48.942;9.104;2022-12-31T01:23:43;0.50;;;0.50;;
8104;SDS011;4095;48.942;9.104;2022-12-31T01:26:09;0.47;;;0.47;;
8104;SDS011;4095;48.942;9.104;2022-12-31T01:28:36;1.07;;;0.53;;
8104;SDS011;4095;48.942;9.104;2022-12-31T01:31:04;0.87;;;0.60;;
8104;SDS011;4095;48.942;9.104;2022-12-31T01:33:31;0.40;;;0.40;;
8104;SDS011;4095;48.942;9.104;2022-12-31T01:36:01;0.63;;;0.50;;
8104;SDS011;4095;48.942;9.104;2022-12-31T01:38:28;0.50;;;0.50;;
8104;SDS011;4095;48.942;9.104;2022-12-31T01:40:54;0.77;;;0.50;;
8104;SDS011;4095;48.942;9.104;2022-12-31T01:43:19;0.50;;;0.50;;
8104;SDS011;4095;48.942;9.104;2022-12-31T01:45:46;1.13;;;0.60;;
8104;SDS011;4095;48.942;9.104;2022-12-31T01:48:15;0.90;;;0.60;;
8104;SDS011;4095;48.942;9.104;2022-12-31T01:50:46;1.03;;;0.73;;
8104;SDS011;4095;48.942;9.104;2022-12-31T01:53:13;0.53;;;0.40;;
8104;SDS011;4095;48.942;9.104;2022-12-31T01:55:51;0.40;;;0.40;;
8104;SDS011;4095;48.942;9.104;2022-12-31T01:58:24;0.70;;;0.70;;
8104;SDS011;4095;48.942;9.104;2022-12-31T02:00:56;0.93;;;0.57;;
8104;SDS011;4095;48.942;9.104;2022-12-31T02:03:23;0.73;;;0.70;;
8104;SDS011;4095;48.942;9.104;2022-12-31T02:08:18;0.60;;;0.60;;
8104;SDS011;4095;48.942;9.104;2022-12-31T02:10:45;0.57;;;0.53;;
8104;SDS011;4095;48.942;9.104;2022-12-31T02:13:11;1.50;;;0.70;;
8104;SDS011;4095;48.942;9.104;2022-12-31T02:18:33;0.40;;;0.40;;
8104;SDS011;4095;48.942;9.104;2022-12-31T02:26:50;1.33;;;0.60;;
8104;SDS011;4095;48.942;9.104;2022-12-31T02:32:12;0.40;;;0.40;;
8104;SDS011;4095;48.942;9.104;2022-12-31T02:34:51;0.60;;;0.60;;
8104;SDS011;4095;48.942;9.104;2022-12-31T02:37:25;0.63;;;0.40;;
8104;SDS011;4095;48.942;9.104;2022-12-31T02:39:54;1.07;;;0.50;;
8104;SDS011;4095;48.942;9.104;2022-12-31T02:42:20;0.60;;;0.60;;
8104;SDS011;4095;48.942;9.104;2022-12-31T02:44:46;0.70;;;0.50;;
8104;SDS011;4095;48.942;9.104;2022-12-31T02:47:23;0.60;;;0.50;;
8104;SDS011;4095;48.942;9.104;2022-12-31T02:57:50;1.70;;;0.70;;
8104;SDS011;4095;48.942;9.104;2022-12-31T03:00:45;1.67;;;0.60;;
8104;SDS011;4095;48.942;9.104;2022-12-31T03:03:36;1.00;;;0.60;;
8104;SDS011;4095;48.942;9.104;2022-12-31T03:06:02;1.40;;;0.70;;
8104;SDS011;4095;48.942;9.104;2022-12-31T03:08:30;0.90;;;0.60;;
8104;SDS011;4095;48.942;9.104;2022-12-31T03:10:55;0.60;;;0.60;;
8104;SDS011;4095;48.942;9.104;2022-12-31T03:13:22;2.20;;;1.07;;
8104;SDS011;4095;48.942;9.104;2022-12-31T03:15:48;0.80;;;0.80;;
8104;SDS011;4095;48.942;9.104;2022-12-31T03:18:15;1.07;;;0.63;;
8104;SDS011;4095;48.942;9.104;2022-12-31T03:20:43;0.70;;;0.60;;
8104;SDS011;4095;48.942;9.104;2022-12-31T03:23:36;0.80;;;0.70;;
8104;SDS011;4095;48.942;9.104;2022-12-31T03:26:04;2.10;;;0.80;;
8104;SDS011;4095;48.942;9.104;2022-12-31T03:28:36;1.50;;;0.50;;
8104;SDS011;4095;48.942;9.104;2022-12-31T03:31:03;3.93;;;0.77;;
8104;SDS011;4095;48.942;9.104;2022-12-31T03:33:29;0.90;;;0.70;;
8104;SDS011;4095;48.942;9.104;2022-12-31T03:35:56;1.50;;;0.70;;
8104;SDS011;4095;48.942;9.104;2022-12-31T03:38:21;1.70;;;0.87;;
8104;SDS011;4095;48.942;9.104;2022-12-31T03:40:49;1.13;;;0.70;;
8104;SDS011;4095;48.942;9.104;2022-12-31T03:43:16;1.07;;;0.80;;
8104;SDS011;4095;48.942;9.104;2022-12-31T03:45:43;1.50;;;0.60;;
8104;SDS011;4095;48.942;9.104;2022-12-31T03:48:13;0.90;;;0.90;;
8104;SDS011;4095;48.942;9.104;2022-12-31T03:50:39;0.77;;;0.70;;
8104;SDS011;4095;48.942;9.104;2022-12-31T03:53:04;1.63;;;0.70;;
8104;SDS011;4095;48.942;9.104;2022-12-31T03:55:30;1.40;;;0.70;;
8104;SDS011;4095;48.942;9.104;2022-12-31T03:57:56;1.00;;;0.90;;
8104;SDS011;4095;48.942;9.104;2022-12-31T04:00:21;4.23;;;1.10;;
8104;SDS011;4095;48.942;9.104;2022-12-31T04:02:47;2.40;;;0.90;;
8104;SDS011;4095;48.942;9.104;2022-12-31T04:05:15;1.10;;;0.80;;
8104;SDS011;4095;48.942;9.104;2022-12-31T04:07:41;0.83;;;0.60;;
8104;SDS011;4095;48.942;9.104;2022-12-31T04:10:07;0.97;;;0.60;;
8104;SDS011;4095;48.942;9.104;2022-12-31T04:12:34;1.70;;;0.97;;
8104;SDS011;4095;48.942;9.104;2022-12-31T04:15:00;0.77;;;0.77;;
8104;SDS011;4095;48.942;9.104;2022-12-31T04:17:26;1.60;;;0.73;;
8104;SDS011;4095;48.942;9.104;2022-12-31T04:19:52;0.80;;;0.80;;
8104;SDS011;4095;48.942;9.104;2022-12-31T04:22:18;0.60;;;0.60;;
8104;SDS011;4095;48.942;9.104;2022-12-31T04:24:43;3.60;;;1.03;;
8104;SDS011;4095;48.942;9.104;2022-12-31T04:27:12;1.10;;;0.80;;
8104;SDS011;4095;48.942;9.104;2022-12-31T04:29:38;0.60;;;0.60;;
8104;SDS011;4095;48.942;9.104;2022-12-31T04:32:04;0.77;;;0.73;;
8104;SDS011;4095;48.942;9.104;2022-12-31T04:34:31;0.70;;;0.70;;
8104;SDS011;4095;48.942;9.104;2022-12-31T04:36:57;1.63;;;1.00;;
8104;SDS011;4095;48.942;9.104;2022-12-31T04:39:24;1.80;;;0.70;;
8104;SDS011;4095;48.942;9.104;2022-12-31T04:41:50;0.80;;;0.70;;
8104;SDS011;4095;48.942;9.104;2022-12-31T04:44:16;1.00;;;0.90;;
8104;SDS011;4095;48.942;9.104;2022-12-31T04:46:42;0.97;;;0.80;;
8104;SDS011;4095;48.942;9.104;2022-12-31T04:49:08;1.30;;;0.93;;
8104;SDS011;4095;48.942;9.104;2022-12-31T04:51:34;0.60;;;0.60;;
8104;SDS011;4095;48.942;9.104;2022-12-31T04:54:00;0.70;;;0.70;;
8104;SDS011;4095;48.942;9.104;2022-12-31T04:56:26;0.93;;;0.83;;
8104;SDS011;4095;48.942;9.104;2022-12-31T04:58:52;1.37;;;0.60;;
8104;SDS011;4095;48.942;9.104;2022-12-31T05:01:18;0.90;;;0.80;;
8104;SDS011;4095;48.942;9.104;2022-12-31T05:03:44;0.70;;;0.60;;
8104;SDS011;4095;48.942;9.104;2022-12-31T05:06:18;0.87;;;0.50;;
8104;SDS011;4095;48.942;9.104;2022-12-31T05:08:45;0.60;;;0.60;;
8104;SDS011;4095;48.942;9.104;2022-12-31T05:11:11;1.20;;;0.70;;
8104;SDS011;4095;48.942;9.104;2022-12-31T05:13:37;1.30;;;0.80;;
8104;SDS011;4095;48.942;9.104;2022-12-31T05:16:03;1.70;;;0.90;;
8104;SDS011;4095;48.942;9.104;2022-12-31T05:18:29;0.70;;;0.70;;
8104;SDS011;4095;48.942;9.104;2022-12-31T05:20:55;1.10;;;0.73;;
8104;SDS011;4095;48.942;9.104;2022-12-31T05:23:21;0.97;;;0.60;;
8104;SDS011;4095;48.942;9.104;2022-12-31T05:25:48;2.63;;;0.93;;
8104;SDS011;4095;48.942;9.104;2022-12-31T05:28:14;2.17;;;0.90;;
8104;SDS011;4095;48.942;9.104;2022-12-31T05:30:40;0.97;;;0.80;;
8104;SDS011;4095;48.942;9.104;2022-12-31T05:33:07;1.57;;;0.70;;
8104;SDS011;4095;48.942;9.104;2022-12-31T05:35:33;0.60;;;0.60;;
8104;SDS011;4095;48.942;9.104;2022-12-31T05:37:59;0.70;;;0.70;;
8104;SDS011;4095;48.942;9.104;2022-12-31T05:40:25;1.23;;;0.50;;
8104;SDS011;4095;48.942;9.104;2022-12-31T05:42:51;1.00;;;0.73;;
8104;SDS011;4095;48.942;9.104;2022-12-31T05:45:17;0.90;;;0.90;;
8104;SDS011;4095;48.942;9.104;2022-12-31T05:47:43;1.37;;;0.73;;
8104;SDS011;4095;48.942;9.104;2022-12-31T05:50:10;0.97;;;0.60;;
8104;SDS011;4095;48.942;9.104;2022-12-31T05:52:39;0.57;;;0.57;;
8104;SDS011;4095;48.942;9.104;2022-12-31T05:55:05;1.03;;;0.70;;
8104;SDS011;4095;48.942;9.104;2022-12-31T05:57:31;0.60;;;0.60;;
8104;SDS011;4095;48.942;9.104;2022-12-31T05:59:56;0.93;;;0.73;;
8104;SDS011;4095;48.942;9.104;2022-12-31T06:02:22;1.80;;;0.60;;
8104;SDS011;4095;48.942;9.104;2022-12-31T06:04:47;0.60;;;0.60;;
8104;SDS011;4095;48.942;9.104;2022-12-31T06:07:13;0.30;;;0.30;;
8104;SDS011;4095;48.942;9.104;2022-12-31T06:09:39;1.87;;;0.70;;
8104;SDS011;4095;48.942;9.104;2022-12-31T06:12:05;1.67;;;0.70;;
8104;SDS011;4095;48.942;9.104;2022-12-31T06:14:31;2.13;;;0.80;;
8104;SDS011;4095;48.942;9.104;2022-12-31T06:16:56;0.60;;;0.60;;
8104;SDS011;4095;48.942;9.104;2022-12-31T06:19:22;1.10;;;0.70;;
8104;SDS011;4095;48.942;9.104;2022-12-31T06:21:48;0.87;;;0.60;;
8104;SDS011;4095;48.942;9.104;2022-12-31T06:24:14;0.80;;;0.77;;
8104;SDS011;4095;48.942;9.104;2022-12-31T06:26:40;0.70;;;0.70;;
8104;SDS011;4095;48.942;9.104;2022-12-31T06:29:05;0.60;;;0.60;;
8104;SDS011;4095;48.942;9.104;2022-12-31T06:31:31;0.80;;;0.80;;
8104;SDS011;4095;48.942;9.104;2022-12-31T06:33:57;1.40;;;0.90;;
8104;SDS011;4095;48.942;9.104;2022-12-31T06:36:23;1.33;;;0.80;;
8104;SDS011;4095;48.942;9.104;2022-12-31T06:38:48;1.00;;;1.00;;
8104;SDS011;4095;48.942;9.104;2022-12-31T06:41:14;1.43;;;0.63;;
8104;SDS011;4095;48.942;9.104;2022-12-31T06:43:40;0.80;;;0.80;;
8104;SDS011;4095;48.942;9.104;2022-12-31T06:46:08;1.97;;;0.93;;
8104;SDS011;4095;48.942;9.104;2022-12-31T06:48:35;1.13;;;0.90;;
8104;SDS011;4095;48.942;9.104;2022-12-31T06:51:02;1.43;;;0.80;;
8104;SDS011;4095;48.942;9.104;2022-12-31T06:53:32;1.60;;;0.90;;
8104;SDS011;4095;48.942;9.104;2022-12-31T06:56:08;2.10;;;1.07;;
8104;SDS011;4095;48.942;9.104;2022-12-31T06:58:38;0.80;;;0.80;;
8104;SDS011;4095;48.942;9.104;2022-12-31T07:06:35;1.27;;;0.73;;
8104;SDS011;4095;48.942;9.104;2022-12-31T07:09:44;1.77;;;0.90;;
8104;SDS011;4095;48.942;9.104;2022-12-31T07:20:17;0.77;;;0.77;;
8104;SDS011;4095;48.942;9.104;2022-12-31T07:22:44;1.00;;;0.80;;
8104;SDS011;4095;48.942;9.104;2022-12-31T07:25:13;2.47;;;0.97;;
8104;SDS011;4095;48.942;9.104;2022-12-31T07:30:46;1.30;;;0.90;;
8104;SDS011;4095;48.942;9.104;2022-12-31T07:35:59;1.57;;;0.70;;
8104;SDS011;4095;48.942;9.104;2022-12-31T07:38:55;1.00;;;0.80;;
8104;SDS011;4095;48.942;9.104;2022-12-31T07:45:16;3.00;;;0.73;;
8104;SDS011;4095;48.942;9.104;2022-12-31T07:47:20;0.80;;;0.67;;
8104;SDS011;4095;48.942;9.104;2022-12-31T07:49:48;0.80;;;0.80;;
8104;SDS011;4095;48.942;9.104;2022-12-31T07:52:15;1.73;;;0.90;;
8104;SDS011;4095;48.942;9.104;2022-12-31T07:54:41;0.80;;;0.70;;
8104;SDS011;4095;48.942;9.104;2022-12-31T07:57:07;0.97;;;0.97;;
8104;SDS011;4095;48.942;9.104;2022-12-31T08:02:31;0.73;;;0.73;;
8104;SDS011;4095;48.942;9.104;2022-12-31T08:05:28;0.97;;;0.80;;
8104;SDS011;4095;48.942;9.104;2022-12-31T08:13:22;1.20;;;0.93;;
8104;SDS011;4095;48.942;9.104;2022-12-31T08:15:48;1.00;;;1.00;;
8104;SDS011;4095;48.942;9.104;2022-12-31T08:18:13;1.70;;;0.90;;
8104;SDS011;4095;48.942;9.104;2022-12-31T08:20:54;1.47;;;0.90;;
8104;SDS011;4095;48.942;9.104;2022-12-31T08:26:54;0.77;;;0.77;;
8104;SDS011;4095;48.942;9.104;2022-12-31T08:29:53;1.67;;;0.73;;
8104;SDS011;4095;48.942;9.104;2022-12-31T08:35:24;1.33;;;0.70;;
8104;SDS011;4095;48.942;9.104;2022-12-31T08:41:07;1.17;;;0.80;;
8104;SDS011;4095;48.942;9.104;2022-12-31T08:49:18;1.87;;;0.87;;
8104;SDS011;4095;48.942;9.104;2022-12-31T08:51:44;0.60;;;0.60;;
8104;SDS011;4095;48.942;9.104;2022-12-31T08:54:11;1.60;;;0.90;;
8104;SDS011;4095;48.942;9.104;2022-12-31T09:10:48;0.87;;;0.80;;
8104;SDS011;4095;48.942;9.104;2022-12-31T09:18:42;2.40;;;0.93;;
8104;SDS011;4095;48.942;9.104;2022-12-31T09:21:08;0.70;;;0.70;;
8104;SDS011;4095;48.942;9.104;2022-12-31T09:23:35;1.10;;;0.80;;
8104;SDS011;4095;48.942;9.104;2022-12-31T09:31:39;2.43;;;0.80;;
8104;SDS011;4095;48.942;9.104;2022-12-31T09:37:20;1.43;;;0.87;;
8104;SDS011;4095;48.942;9.104;2022-12-31T09:39:53;1.83;;;1.00;;
8104;SDS011;4095;48.942;9.104;2022-12-31T09:48:06;1.27;;;0.83;;
8104;SDS011;4095;48.942;9.104;2022-12-31T09:50:56;0.87;;;0.80;;
8104;SDS011;4095;48.942;9.104;2022-12-31T09:56:34;1.47;;;0.90;;
8104;SDS011;4095;48.942;9.104;2022-12-31T10:01:58;0.80;;;0.70;;
8104;SDS011;4095;48.942;9.104;2022-12-31T10:11:01;0.90;;;0.70;;
8104;SDS011;4095;48.942;9.104;2022-12-31T10:16:19;0.97;;;0.63;;
8104;SDS011;4095;48.942;9.104;2022-12-31T10:21:58;1.47;;;0.80;;
8104;SDS011;4095;48.942;9.104;2022-12-31T10:30:23;1.73;;;0.70;;
8104;SDS011;4095;48.942;9.104;2022-12-31T10:35:27;1.05;;;0.52;;
8104;SDS011;4095;48.942;9.104;2022-12-31T10:54:56;3.00;;;0.95;;
8104;SDS011;4095;48.942;9.104;2022-12-31T10:57:57;3.58;;;0.85;;
8104;SDS011;4095;48.942;9.104;2022-12-31T11:00:33;1.55;;;0.75;;
8104;SDS011;4095;48.942;9.104;2022-12-31T11:08:11;0.95;;;0.60;;
8104;SDS011;4095;48.942;9.104;2022-12-31T11:13:21;1.88;;;0.65;;
8104;SDS011;4095;48.942;9.104;2022-12-31T11:21:56;0.80;;;0.70;;
8104;SDS011;4095;48.942;9.104;2022-12-31T11:24:42;1.63;;;0.77;;
8104;SDS011;4095;48.942;9.104;2022-12-31T11:30:21;1.00;;;0.70;;
8104;SDS011;4095;48.942;9.104;2022-12-31T11:38:39;0.47;;;0.47;;
8104;SDS011;4095;48.942;9.104;2022-12-31T11:41:29;1.02;;;0.60;;
8104;SDS011;4095;48.942;9.104;2022-12-31T11:44:01;0.98;;;0.50;;
8104;SDS011;4095;48.942;9.104;2022-12-31T11:46:46;1.15;;;0.60;;
8104;SDS011;4095;48.942;9.104;2022-12-31T11:49:50;1.02;;;0.73;;
8104;SDS011;4095;48.942;9.104;2022-12-31T11:55:01;0.65;;;0.60;;
8104;SDS011;4095;48.942;9.104;2022-12-31T11:57:43;1.95;;;0.70;;
8104;SDS011;4095;48.942;9.104;2022-12-31T12:02:44;0.60;;;0.52;;
8104;SDS011;4095;48.942;9.104;2022-12-31T12:05:14;0.60;;;0.60;;
8104;SDS011;4095;48.942;9.104;2022-12-31T12:07:44;1.15;;;0.73;;
8104;SDS011;4095;48.942;9.104;2022-12-31T12:10:30;1.00;;;0.90;;
8104;SDS011;4095;48.942;9.104;2022-12-31T12:13:09;1.80;;;1.20;;
8104;SDS011;4095;48.942;9.104;2022-12-31T12:15:37;1.23;;;1.10;;
8104;SDS011;4095;48.942;9.104;2022-12-31T12:18:12;1.10;;;0.80;;
8104;SDS011;4095;48.942;9.104;2022-12-31T12:20:47;0.60;;;0.60;;
8104;SDS011;4095;48.942;9.104;2022-12-31T12:23:25;0.88;;;0.65;;
8104;SDS011;4095;48.942;9.104;2022-12-31T12:25:51;1.80;;;1.40;;
8104;SDS011;4095;48.942;9.104;2022-12-31T12:28:18;1.50;;;0.90;;
8104;SDS011;4095;48.942;9.104;2022-12-31T12:33:27;1.95;;;1.75;;
8104;SDS011;4095;48.942;9.104;2022-12-31T12:36:15;1.83;;;1.70;;
8104;SDS011;4095;48.942;9.104;2022-12-31T12:38:41;2.00;;;1.10;;
8104;SDS011;4095;48.942;9.104;2022-12-31T12:41:11;2.05;;;0.95;;
8104;SDS011;4095;48.942;9.104;2022-12-31T12:43:49;1.90;;;1.70;;
8104;SDS011;4095;48.942;9.104;2022-12-31T12:46:29;2.13;;;1.80;;
8104;SDS011;4095;48.942;9.104;2022-12-31T12:48:56;3.33;;;2.00;;
8104;SDS011;4095;48.942;9.104;2022-12-31T13:00:39;1.40;;;0.85;;
8104;SDS011;4095;48.942;9.104;2022-12-31T13:14:25;1.60;;;1.00;;
8104;SDS011;4095;48.942;9.104;2022-12-31T13:19:45;1.67;;;1.30;;
8104;SDS011;4095;48.942;9.104;2022-12-31T13:22:32;2.23;;;1.77;;
8104;SDS011;4095;48.942;9.104;2022-12-31T13:25:09;1.87;;;1.33;;
8104;SDS011;4095;48.942;9.104;2022-12-31T13:28:10;1.90;;;1.60;;
8104;SDS011;4095;48.942;9.104;2022-12-31T13:30:39;1.57;;;1.03;;
8104;SDS011;4095;48.942;9.104;2022-12-31T13:33:17;2.83;;;1.90;;
8104;SDS011;4095;48.942;9.104;2022-12-31T13:36:02;3.23;;;1.83;;
8104;SDS011;4095;48.942;9.104;2022-12-31T13:38:38;0.90;;;0.70;;
8104;SDS011;4095;48.942;9.104;2022-12-31T13:41:18;2.77;;;1.50;;
8104;SDS011;4095;48.942;9.104;2022-12-31T13:51:21;1.90;;;0.93;;
8104;SDS011;4095;48.942;9.104;2022-12-31T13:56:44;0.87;;;0.63;;
8104;SDS011;4095;48.942;9.104;2022-12-31T13:59:14;3.50;;;1.67;;
8104;SDS011;4095;48.942;9.104;2022-12-31T14:02:06;1.33;;;1.00;;
8104;SDS011;4095;48.942;9.104;2022-12-31T14:04:53;2.23;;;1.50;;
8104;SDS011;4095;48.942;9.104;2022-12-31T14:07:31;1.83;;;1.00;;
8104;SDS011;4095;48.942;9.104;2022-12-31T14:10:14;1.07;;;0.90;;
8104;SDS011;4095;48.942;9.104;2022-12-31T14:12:52;1.03;;;0.60;;
8104;SDS011;4095;48.942;9.104;2022-12-31T14:15:37;0.67;;;0.60;;
8104;SDS011;4095;48.942;9.104;2022-12-31T14:26:37;1.23;;;1.10;;
8104;SDS011;4095;48.942;9.104;2022-12-31T14:29:25;0.60;;;0.50;;
8104;SDS011;4095;48.942;9.104;2022-12-31T14:41:15;1.10;;;1.00;;
8104;SDS011;4095;48.942;9.104;2022-12-31T14:44:00;1.10;;;1.00;;
8104;SDS011;4095;48.942;9.104;2022-12-31T14:49:42;1.17;;;0.50;;
8104;SDS011;4095;48.942;9.104;2022-12-31T14:52:31;1.03;;;0.80;;
8104;SDS011;4095;48.942;9.104;2022-12-31T14:57:34;1.67;;;1.30;;
8104;SDS011;4095;48.942;9.104;2022-12-31T15:00:00;1.70;;;1.10;;
8104;SDS011;4095;48.942;9.104;2022-12-31T15:02:49;2.00;;;1.60;;
8104;SDS011;4095;48.942;9.104;2022-12-31T15:06:02;5.67;;;5.03;;
8104;SDS011;4095;48.942;9.104;2022-12-31T15:08:45;6.40;;;5.80;;
8104;SDS011;4095;48.942;9.104;2022-12-31T15:16:54;1.53;;;1.00;;
8104;SDS011;4095;48.942;9.104;2022-12-31T15:27:55;2.47;;;2.27;;
8104;SDS011;4095;48.942;9.104;2022-12-31T15:30:29;3.00;;;2.70;;
8104;SDS011;4095;48.942;9.104;2022-12-31T15:33:00;3.53;;;3.23;;
8104;SDS011;4095;48.942;9.104;2022-12-31T15:35:30;3.53;;;3.23;;
8104;SDS011;4095;48.942;9.104;2022-12-31T15:40:46;7.30;;;6.63;;
8104;SDS011;4095;48.942;9.104;2022-12-31T15:43:38;6.67;;;5.97;;
8104;SDS011;4095;48.942;9.104;2022-12-31T15:46:08;5.87;;;5.27;;
8104;SDS011;4095;48.942;9.104;2022-12-31T15:48:47;5.83;;;5.23;;
8104;SDS011;4095;48.942;9.104;2022-12-31T15:51:24;5.80;;;4.50;;
8104;SDS011;4095;48.942;9.104;2022-12-31T15:53:55;1.70;;;1.60;;
8104;SDS011;4095;48.942;9.104;2022-12-31T15:56:30;2.87;;;1.67;;
8104;SDS011;4095;48.942;9.104;2022-12-31T15:59:06;3.80;;;2.00;;
8104;SDS011;4095;48.942;9.104;2022-12-31T16:01:38;1.77;;;1.30;;
8104;SDS011;4095;48.942;9.104;2022-12-31T16:04:11;1.97;;;1.30;;
8104;SDS011;4095;48.942;9.104;2022-12-31T16:06:49;1.40;;;1.27;;
8104;SDS011;4095;48.942;9.104;2022-12-31T16:09:19;2.67;;;1.70;;
8104;SDS011;4095;48.942;9.104;2022-12-31T16:11:50;4.80;;;4.00;;
8104;SDS011;4095;48.942;9.104;2022-12-31T16:14:39;3.10;;;2.63;;
8104;SDS011;4095;48.942;9.104;2022-12-31T16:17:18;2.20;;;1.80;;
8104;SDS011;4095;48.942;9.104;2022-12-31T16:19:56;2.30;;;1.50;;
8104;SDS011;4095;48.942;9.104;2022-12-31T16:22:23;2.27;;;1.47;;
8104;SDS011;4095;48.942;9.104;2022-12-31T16:24:56;1.33;;;1.13;;
8104;SDS011;4095;48.942;9.104;2022-12-31T16:27:24;1.77;;;1.23;;
8104;SDS011;4095;48.942;9.104;2022-12-31T16:29:58;1.40;;;1.30;;
8104;SDS011;4095;48.942;9.104;2022-12-31T16:32:32;1.60;;;1.27;;
8104;SDS011;4095;48.942;9.104;2022-12-31T16:35:02;1.43;;;1.30;;
8104;SDS011;4095;48.942;9.104;2022-12-31T16:37:28;1.47;;;1.30;;
8104;SDS011;4095;48.942;9.104;2022-12-31T16:42:23;2.43;;;1.60;;
8104;SDS011;4095;48.942;9.104;2022-12-31T16:44:51;6.30;;;3.90;;
8104;SDS011;4095;48.942;9.104;2022-12-31T16:49:46;3.17;;;2.80;;
8104;SDS011;4095;48.942;9.104;2022-12-31T16:52:21;5.10;;;3.80;;
8104;SDS011;4095;48.942;9.104;2022-12-31T16:54:56;5.83;;;3.97;;
8104;SDS011;4095;48.942;9.104;2022-12-31T16:57:24;7.53;;;4.90;;
8104;SDS011;4095;48.942;9.104;2022-12-31T16:59:53;3.63;;;2.70;;
8104;SDS011;4095;48.942;9.104;2022-12-31T17:02:29;3.93;;;2.83;;
8104;SDS011;4095;48.942;9.104;2022-12-31T17:05:00;3.53;;;2.40;;
8104;SDS011;4095;48.942;9.104;2022-12-31T17:10:03;2.97;;;2.40;;
8104;SDS011;4095;48.942;9.104;2022-12-31T17:12:44;3.60;;;3.00;;
8104;SDS011;4095;48.942;9.104;2022-12-31T17:15:40;4.50;;;3.10;;
8104;SDS011;4095;48.942;9.104;2022-12-31T17:18:09;4.43;;;3.30;;
8104;SDS011;4095;48.942;9.104;2022-12-31T17:20:44;3.17;;;2.37;;
8104;SDS011;4095;48.942;9.104;2022-12-31T17:23:12;2.90;;;2.60;;
8104;SDS011;4095;48.942;9.104;2022-12-31T17:25:45;4.07;;;2.20;;
8104;SDS011;4095;48.942;9.104;2022-12-31T17:28:21;3.20;;;1.90;;
8104;SDS011;4095;48.942;9.104;2022-12-31T17:30:47;2.07;;;1.87;;
8104;SDS011;4095;48.942;9.104;2022-12-31T17:35:45;6.73;;;3.13;;
8104;SDS011;4095;48.942;9.104;2022-12-31T17:40:46;3.50;;;3.13;;
8104;SDS011;4095;48.942;9.104;2022-12-31T17:43:19;2.77;;;2.30;;
8104;SDS011;4095;48.942;9.104;2022-12-31T17:45:46;1.80;;;1.70;;
8104;SDS011;4095;48.942;9.104;2022-12-31T17:48:15;2.00;;;1.80;;
8104;SDS011;4095;48.942;9.104;2022-12-31T17:50:47;2.90;;;2.03;;
8104;SDS011;4095;48.942;9.104;2022-12-31T17:53:17;2.53;;;2.33;;
8104;SDS011;4095;48.942;9.104;2022-12-31T17:55:44;4.30;;;2.60;;
8104;SDS011;4095;48.942;9.104;2022-12-31T17:58:17;3.03;;;2.63;;
8104;SDS011;4095;48.942;9.104;2022-12-31T18:01:06;3.03;;;2.40;;
8104;SDS011;4095;48.942;9.104;2022-12-31T18:03:32;4.57;;;3.50;;
8104;SDS011;4095;48.942;9.104;2022-12-31T18:05:58;4.00;;;2.33;;
8104;SDS011;4095;48.942;9.104;2022-12-31T18:08:24;3.80;;;3.10;;
8104;SDS011;4095;48.942;9.104;2022-12-31T18:10:49;3.07;;;2.77;;
8104;SDS011;4095;48.942;9.104;2022-12-31T18:13:17;3.73;;;2.60;;
8104;SDS011;4095;48.942;9.104;2022-12-31T18:15:47;3.80;;;3.30;;
8104;SDS011;4095;48.942;9.104;2022-12-31T18:18:20;3.03;;;2.60;;
8104;SDS011;4095;48.942;9.104;2022-12-31T18:20:51;3.27;;;2.97;;
8104;SDS011;4095;48.942;9.104;2022-12-31T18:26:03;3.77;;;3.37;;
8104;SDS011;4095;48.942;9.104;2022-12-31T18:28:29;4.03;;;2.90;;
8104;SDS011;4095;48.942;9.104;2022-12-31T18:30:55;3.00;;;2.73;;
8104;SDS011;4095;48.942;9.104;2022-12-31T18:33:20;4.23;;;3.40;;
8104;SDS011;4095;48.942;9.104;2022-12-31T18:35:51;3.87;;;3.20;;
8104;SDS011;4095;48.942;9.104;2022-12-31T18:38:17;3.87;;;3.23;;
8104;SDS011;4095;48.942;9.104;2022-12-31T18:40:47;4.13;;;3.50;;
8104;SDS011;4095;48.942;9.104;2022-12-31T18:43:19;4.23;;;3.73;;
8104;SDS011;4095;48.942;9.104;2022-12-31T18:45:46;3.73;;;3.37;;
8104;SDS011;4095;48.942;9.104;2022-12-31T18:48:12;4.37;;;3.90;;
8104;SDS011;4095;48.942;9.104;2022-12-31T18:50:39;6.73;;;5.53;;
8104;SDS011;4095;48.942;9.104;2022-12-31T18:53:05;8.00;;;7.20;;
8104;SDS011;4095;48.942;9.104;2022-12-31T18:58:04;10.03;;;7.70;;
8104;SDS011;4095;48.942;9.104;2022-12-31T19:00:31;11.33;;;8.13;;
8104;SDS011;4095;48.942;9.104;2022-12-31T19:02:58;8.87;;;7.77;;
8104;SDS011;4095;48.942;9.104;2022-12-31T19:05:25;8.50;;;7.60;;
8104;SDS011;4095;48.942;9.104;2022-12-31T19:07:53;8.60;;;7.77;;
8104;SDS011;4095;48.942;9.104;2022-12-31T19:10:19;9.10;;;7.53;;
8104;SDS011;4095;48.942;9.104;2022-12-31T19:12:45;10.90;;;9.13;;
8104;SDS011;4095;48.942;9.104;2022-12-31T19:15:28;12.00;;;10.77;;
8104;SDS011;4095;48.942;9.104;2022-12-31T19:17:57;15.40;;;13.80;;
8104;SDS011;4095;48.942;9.104;2022-12-31T19:20:23;13.73;;;12.07;;
8104;SDS011;4095;48.942;9.104;2022-12-31T19:22:49;11.80;;;10.13;;
8104;SDS011;4095;48.942;9.104;2022-12-31T19:25:25;13.20;;;11.80;;
8104;SDS011;4095;48.942;9.104;2022-12-31T19:27:55;18.03;;;14.47;;
8104;SDS011;4095;48.942;9.104;2022-12-31T19:30:24;12.17;;;9.73;;
8104;SDS011;4095;48.942;9.104;2022-12-31T19:32:51;6.13;;;4.53;;
8104;SDS011;4095;48.942;9.104;2022-12-31T19:35:18;4.13;;;3.33;;
8104;SDS011;4095;48.942;9.104;2022-12-31T19:37:44;4.03;;;3.57;;
8104;SDS011;4095;48.942;9.104;2022-12-31T19:40:16;5.40;;;4.90;;
8104;SDS011;4095;48.942;9.104;2022-12-31T19:42:45;5.73;;;5.03;;
8104;SDS011;4095;48.942;9.104;2022-12-31T19:45:12;6.43;;;5.40;;
8104;SDS011;4095;48.942;9.104;2022-12-31T19:47:43;8.60;;;7.90;;
8104;SDS011;4095;48.942;9.104;2022-12-31T19:50:13;5.87;;;5.10;;
8104;SDS011;4095;48.942;9.104;2022-12-31T19:52:41;5.30;;;4.63;;
8104;SDS011;4095;48.942;9.104;2022-12-31T19:55:10;4.97;;;4.20;;
8104;SDS011;4095;48.942;9.104;2022-12-31T19:57:37;6.87;;;5.60;;
8104;SDS011;4095;48.942;9.104;2022-12-31T20:00:04;7.57;;;5.77;;
8104;SDS011;4095;48.942;9.104;2022-12-31T20:02:30;6.60;;;4.97;;
8104;SDS011;4095;48.942;9.104;2022-12-31T20:04:56;6.17;;;4.83;;